Time;durP1;ratioP1;P1;durP2;ratioP2;P2;SDS_P1;SDS_P2;PMS_P1;PMS_P2;Temp;Humidity;BMP_temperature;BMP_pressure;BME280_temperature;BME280_humidity;BME280_pressure;Samples;Min_cycle;Max_cycle;Signal;HPM_P1;HPM_P2
2022/05/26 00:01:27;;;;;;;;;2.00;1.75;;;;;;;;5066637;27;51186;-54
2022/05/26 00:04:13;;;;;;;;;3.50;1.00;;;;;;;;5077912;27;51111;-54
2022/05/26 00:06:59;;;;;;;;;5.25;0.75;;;;;;;;5082042;27;51248;-52
2022/05/26 00:10:02;;;;;;;;;1.50;0.00;;;;;;;;5082559;27;51055;-55
2022/05/26 00:12:46;;;;;;;;;4.00;0.00;;;;;;;;5081919;27;51016;-55
2022/05/26 00:15:37;;;;;;;;;1.00;1.00;;;;;;;;5082290;27;51027;-56
2022/05/26 00:18:23;;;;;;;;;1.00;1.00;;;;;;;;5077072;27;51119;-54
2022/05/26 00:21:11;;;;;;;;;0.50;0.50;;;;;;;;5082388;27;51070;-54
2022/05/26 00:23:56;;;;;;;;;1.00;1.00;;;;;;;;5081703;27;51086;-56
2022/05/26 00:26:41;;;;;;;;;3.75;0.50;;;;;;;;5081822;27;51029;-54
2022/05/26 00:29:27;;;;;;;;;2.00;0.25;;;;;;;;5081553;27;51047;-56
2022/05/26 00:32:13;;;;;;;;;0.75;0.75;;;;;;;;5077591;27;51004;-56
2022/05/26 00:35:10;;;;;;;;;0.50;0.50;;;;;;;;5065846;27;51084;-55
2022/05/26 00:38:04;;;;;;;;;2.25;0.00;;;;;;;;5081377;27;51356;-55
2022/05/26 00:40:52;;;;;;;;;1.75;0.00;;;;;;;;5077879;27;51065;-54
2022/05/26 00:43:57;;;;;;;;;0.00;0.00;;;;;;;;5077605;27;51268;-55
2022/05/26 00:47:00;;;;;;;;;2.75;1.00;;;;;;;;5080697;27;51169;-53
2022/05/26 00:49:51;;;;;;;;;0.25;0.25;;;;;;;;5081176;27;51082;-55
2022/05/26 00:53:03;;;;;;;;;3.75;0.75;;;;;;;;5081152;27;51147;-53
2022/05/26 00:55:59;;;;;;;;;2.00;1.50;;;;;;;;5081176;27;51451;-54
2022/05/26 00:58:48;;;;;;;;;3.00;0.75;;;;;;;;5078598;27;51042;-54
2022/05/26 01:01:36;;;;;;;;;3.50;1.00;;;;;;;;5081417;27;51126;-55
2022/05/26 01:04:53;;;;;;;;;1.00;0.75;;;;;;;;5080736;27;51681;-55
2022/05/26 01:07:41;;;;;;;;;0.50;0.50;;;;;;;;5081030;27;51109;-54
2022/05/26 01:10:29;;;;;;;;;1.50;0.00;;;;;;;;5064671;27;51029;-55
2022/05/26 01:13:17;;;;;;;;;1.50;0.75;;;;;;;;5081333;27;51027;-55
2022/05/26 01:16:08;;;;;;;;;2.75;0.50;;;;;;;;5080669;27;51437;-54
2022/05/26 01:19:11;;;;;;;;;0.75;0.00;;;;;;;;5080847;27;51518;-53
2022/05/26 01:22:05;;;;;;;;;0.00;0.00;;;;;;;;5065426;27;51136;-55
2022/05/26 01:25:02;;;;;;;;;0.75;0.00;;;;;;;;5080394;27;51082;-53
2022/05/26 01:28:06;;;;;;;;;2.25;0.75;;;;;;;;5080936;27;51146;-54
2022/05/26 01:31:00;;;;;;;;;1.00;1.00;;;;;;;;5080464;27;51198;-53
2022/05/26 01:33:48;;;;;;;;;0.00;0.00;;;;;;;;5080567;27;51144;-56
2022/05/26 01:36:51;;;;;;;;;1.50;0.00;;;;;;;;5080574;27;52235;-54
2022/05/26 01:39:51;;;;;;;;;2.75;0.00;;;;;;;;5080767;27;51150;-54
2022/05/26 01:42:44;;;;;;;;;3.00;1.00;;;;;;;;5080529;27;51380;-53
2022/05/26 01:45:32;;;;;;;;;3.00;0.50;;;;;;;;5080156;27;51222;-55
2022/05/26 01:48:25;;;;;;;;;0.25;0.00;;;;;;;;5080280;27;51328;-53
2022/05/26 01:51:15;;;;;;;;;1.50;0.50;;;;;;;;5064419;27;51224;-55
2022/05/26 01:54:19;;;;;;;;;0.50;0.50;;;;;;;;5080412;27;51128;-54
2022/05/26 01:57:07;;;;;;;;;0.75;0.00;;;;;;;;5080077;27;51366;-54
2022/05/26 01:59:53;;;;;;;;;1.75;0.00;;;;;;;;5080252;27;51311;-55
2022/05/26 02:03:06;;;;;;;;;3.00;1.00;;;;;;;;5079722;27;51051;-55
2022/05/26 02:05:58;;;;;;;;;1.25;1.00;;;;;;;;5080290;27;51063;-54
2022/05/26 02:08:48;;;;;;;;;0.00;0.00;;;;;;;;5079742;27;51441;-55
2022/05/26 02:11:36;;;;;;;;;1.75;0.00;;;;;;;;5064431;27;51133;-55
2022/05/26 02:14:28;;;;;;;;;4.00;0.50;;;;;;;;5080135;27;51133;-55
2022/05/26 02:17:16;;;;;;;;;0.50;0.50;;;;;;;;5079647;27;52126;-55
2022/05/26 02:20:06;;;;;;;;;1.25;0.00;;;;;;;;5080123;27;51197;-53
2022/05/26 02:23:02;;;;;;;;;1.75;0.25;;;;;;;;5079456;28;51371;-55
2022/05/26 02:25:48;;;;;;;;;2.00;0.75;;;;;;;;5079654;28;51498;-54
2022/05/26 02:29:51;;;;;;;;;2.00;1.00;;;;;;;;5079762;28;51193;-55
2022/05/26 02:31:41;;;;;;;;;0.00;0.00;;;;;;;;5080178;28;51015;-55
2022/05/26 02:34:27;;;;;;;;;1.00;1.00;;;;;;;;5079423;28;52007;-54
2022/05/26 02:37:12;;;;;;;;;1.00;0.00;;;;;;;;5064519;28;51181;-56
2022/05/26 02:39:57;;;;;;;;;0.25;0.25;;;;;;;;5079778;28;51444;-55
2022/05/26 02:43:00;;;;;;;;;1.25;1.25;;;;;;;;5079627;28;51116;-53
2022/05/26 02:46:06;;;;;;;;;1.00;0.50;;;;;;;;5080006;28;50990;-53
2022/05/26 02:49:28;;;;;;;;;0.00;0.00;;;;;;;;5079413;28;51173;-55
2022/05/26 02:52:32;;;;;;;;;1.75;0.25;;;;;;;;5079291;28;51374;-54
2022/05/26 02:55:37;;;;;;;;;1.00;0.00;;;;;;;;5077299;28;51198;-54
2022/05/26 02:58:32;;;;;;;;;2.50;1.00;;;;;;;;5079914;28;51082;-53
2022/05/26 03:01:20;;;;;;;;;0.00;0.00;;;;;;;;5079219;28;51542;-54
2022/05/26 03:04:08;;;;;;;;;1.00;1.00;;;;;;;;5079177;28;51329;-55
2022/05/26 03:06:56;;;;;;;;;1.00;1.00;;;;;;;;5079254;28;51166;-54
2022/05/26 03:09:43;;;;;;;;;2.00;0.00;;;;;;;;5079551;27;51154;-55
2022/05/26 03:12:29;;;;;;;;;0.50;0.50;;;;;;;;5083459;27;51149;-56
2022/05/26 03:15:23;;;;;;;;;0.25;0.25;;;;;;;;5082801;27;51089;-55
2022/05/26 03:18:14;;;;;;;;;0.75;0.75;;;;;;;;5083352;27;51606;-55
2022/05/26 03:21:01;;;;;;;;;1.75;0.50;;;;;;;;5083034;27;51418;-56
2022/05/26 03:23:49;;;;;;;;;0.75;0.50;;;;;;;;5083068;27;51070;-54
2022/05/26 03:26:34;;;;;;;;;3.75;1.00;;;;;;;;5082796;27;50996;-55
2022/05/26 03:29:18;;;;;;;;;1.00;1.00;;;;;;;;5082936;27;51082;-52
2022/05/26 03:32:06;;;;;;;;;3.25;2.50;;;;;;;;5082929;27;51344;-56
2022/05/26 03:41:20;;;;;;;;;1.50;1.00;;;;;;;;5080523;27;51192;-53
2022/05/26 03:44:04;;;;;;;;;3.00;1.50;;;;;;;;5082957;27;51114;-53
2022/05/26 03:46:51;;;;;;;;;3.25;0.00;;;;;;;;5078508;27;51087;-54
2022/05/26 03:49:40;;;;;;;;;1.50;0.00;;;;;;;;5082607;27;51066;-55
2022/05/26 03:52:26;;;;;;;;;2.00;2.00;;;;;;;;5082521;27;52143;-55
2022/05/26 03:55:13;;;;;;;;;4.25;2.50;;;;;;;;5082365;27;51175;-56
2022/05/26 03:58:03;;;;;;;;;4.25;1.50;;;;;;;;5065029;27;51181;-56
2022/05/26 04:00:48;;;;;;;;;1.50;0.75;;;;;;;;5066686;27;51128;-54
2022/05/26 04:03:34;;;;;;;;;1.25;0.75;;;;;;;;5081297;27;51076;-54
2022/05/26 04:06:19;;;;;;;;;2.50;0.75;;;;;;;;5082203;27;51175;-55
2022/05/26 04:09:10;;;;;;;;;1.25;1.00;;;;;;;;5082551;27;51495;-56
2022/05/26 04:11:56;;;;;;;;;2.75;0.25;;;;;;;;5081825;27;51238;-55
2022/05/26 04:14:41;;;;;;;;;0.75;0.00;;;;;;;;5082407;27;51070;-54
2022/05/26 04:17:29;;;;;;;;;1.00;0.00;;;;;;;;5081625;27;51115;-54
2022/05/26 04:20:18;;;;;;;;;3.25;1.00;;;;;;;;5081935;27;51070;-53
2022/05/26 04:23:04;;;;;;;;;1.75;0.25;;;;;;;;5057909;27;51122;-54
2022/05/26 04:25:49;;;;;;;;;2.75;1.50;;;;;;;;5081548;27;51080;-56
2022/05/26 04:28:46;;;;;;;;;1.75;1.00;;;;;;;;5082043;27;51032;-54
2022/05/26 04:31:42;;;;;;;;;2.50;1.50;;;;;;;;5078731;27;51738;-56
2022/05/26 04:34:28;;;;;;;;;0.00;0.00;;;;;;;;5080851;27;51087;-54
2022/05/26 04:37:13;;;;;;;;;5.75;1.00;;;;;;;;5062394;27;51137;-56
2022/05/26 04:40:00;;;;;;;;;3.25;1.50;;;;;;;;5081589;27;51047;-52
2022/05/26 04:42:45;;;;;;;;;2.00;1.75;;;;;;;;5081060;27;51489;-54
2022/05/26 04:45:42;;;;;;;;;4.25;1.00;;;;;;;;5081364;27;51162;-55
2022/05/26 04:48:33;;;;;;;;;1.00;1.00;;;;;;;;5081649;27;51316;-55
2022/05/26 04:51:19;;;;;;;;;4.50;0.75;;;;;;;;5065423;27;51158;-55
2022/05/26 04:54:16;;;;;;;;;1.00;1.00;;;;;;;;5066285;27;51063;-56
2022/05/26 04:57:25;;;;;;;;;3.00;1.00;;;;;;;;5062966;27;51138;-55
2022/05/26 05:00:14;;;;;;;;;2.25;1.00;;;;;;;;5077986;27;51384;-54
2022/05/26 05:03:00;;;;;;;;;2.00;1.00;;;;;;;;5061882;27;51100;-53
2022/05/26 05:05:51;;;;;;;;;1.50;0.75;;;;;;;;5081260;27;51085;-56
2022/05/26 05:08:55;;;;;;;;;3.50;0.50;;;;;;;;5017773;28;52039;-54
2022/05/26 05:11:40;;;;;;;;;4.00;2.00;;;;;;;;5017565;28;51177;-55
2022/05/26 05:14:42;;;;;;;;;1.50;1.50;;;;;;;;5003809;28;51925;-54
2022/05/26 05:17:31;;;;;;;;;5.75;0.75;;;;;;;;5003430;28;51271;-56
2022/05/26 05:20:15;;;;;;;;;4.00;1.50;;;;;;;;5017623;28;51025;-56
2022/05/26 05:23:08;;;;;;;;;3.75;0.75;;;;;;;;5017604;28;52276;-56
2022/05/26 05:25:56;;;;;;;;;3.00;1.25;;;;;;;;5017643;28;51274;-55
2022/05/26 05:28:46;;;;;;;;;1.50;0.50;;;;;;;;5017335;28;51164;-56
2022/05/26 05:31:35;;;;;;;;;2.25;1.00;;;;;;;;5017897;28;51050;-55
2022/05/26 05:34:25;;;;;;;;;2.00;1.00;;;;;;;;5002638;28;51118;-55
2022/05/26 05:37:10;;;;;;;;;1.75;0.75;;;;;;;;5017720;28;51321;-56
2022/05/26 05:39:56;;;;;;;;;6.50;3.00;;;;;;;;5017344;28;51738;-53
2022/05/26 05:42:44;;;;;;;;;1.75;1.75;;;;;;;;5017420;28;51188;-56
2022/05/26 05:45:28;;;;;;;;;4.50;2.75;;;;;;;;5066053;27;51091;-53
2022/05/26 05:48:13;;;;;;;;;2.00;2.00;;;;;;;;5080337;27;51174;-53
2022/05/26 05:51:01;;;;;;;;;1.00;1.00;;;;;;;;5079975;27;51142;-56
2022/05/26 05:54:07;;;;;;;;;3.25;2.00;;;;;;;;5079639;27;51126;-55
2022/05/26 05:56:56;;;;;;;;;6.50;1.75;;;;;;;;5080259;27;51290;-56
2022/05/26 05:59:42;;;;;;;;;3.25;1.00;;;;;;;;5079684;27;51170;-54
2022/05/26 06:02:49;;;;;;;;;3.50;1.00;;;;;;;;5079981;27;51189;-55
2022/05/26 06:05:37;;;;;;;;;2.50;1.50;;;;;;;;5080197;27;51459;-55
2022/05/26 06:11:15;;;;;;;;;6.25;3.75;;;;;;;;5079814;27;51197;-56
2022/05/26 06:14:25;;;;;;;;;3.00;3.00;;;;;;;;5080176;27;51304;-52
2022/05/26 06:17:28;;;;;;;;;1.75;0.50;;;;;;;;5079951;27;51480;-54
2022/05/26 06:20:13;;;;;;;;;2.00;0.00;;;;;;;;5079415;27;51161;-55
2022/05/26 06:23:00;;;;;;;;;5.00;2.75;;;;;;;;5079848;27;51037;-54
2022/05/26 06:25:47;;;;;;;;;6.25;2.50;;;;;;;;5079724;28;51183;-55
2022/05/26 06:37:13;;;;;;;;;3.50;3.50;;;;;;;;5079773;28;51289;-56
2022/05/26 06:38:12;;;;;;;;;6.00;1.00;;;;;;;;5079562;28;51495;-55
2022/05/26 06:44:09;;;;;;;;;8.75;4.00;;;;;;;;5079775;27;51186;-56
2022/05/26 06:46:56;;;;;;;;;3.75;3.75;;;;;;;;5083573;27;51146;-54
2022/05/26 06:50:03;;;;;;;;;5.50;3.25;;;;;;;;5081237;27;51278;-54
2022/05/26 06:52:52;;;;;;;;;2.25;2.00;;;;;;;;5000334;28;52154;-54
2022/05/26 06:55:57;;;;;;;;;5.75;5.00;;;;;;;;5000546;28;51029;-56
2022/05/26 06:58:46;;;;;;;;;4.00;3.00;;;;;;;;5000569;28;51350;-56
2022/05/26 07:01:52;;;;;;;;;4.25;2.75;;;;;;;;5000866;28;51126;-49
2022/05/26 07:04:37;;;;;;;;;6.00;5.25;;;;;;;;5000182;28;51126;-51
2022/05/26 07:07:28;;;;;;;;;6.00;3.75;;;;;;;;5000355;28;51242;-49
2022/05/26 07:10:24;;;;;;;;;4.00;3.00;;;;;;;;4998935;28;51358;-50
2022/05/26 07:13:10;;;;;;;;;10.50;8.00;;;;;;;;4999473;28;51271;-50
2022/05/26 07:15:59;;;;;;;;;14.75;11.50;;;;;;;;4999492;28;51143;-50
2022/05/26 07:18:45;;;;;;;;;6.00;4.00;;;;;;;;5003355;28;51398;-50
2022/05/26 07:21:43;;;;;;;;;3.25;2.25;;;;;;;;4986664;28;51144;-50
2022/05/26 07:24:52;;;;;;;;;2.75;1.50;;;;;;;;4985389;28;51369;-52
2022/05/26 07:27:37;;;;;;;;;3.75;3.75;;;;;;;;4986509;28;51254;-52
2022/05/26 07:30:31;;;;;;;;;4.00;1.00;;;;;;;;5052591;27;51138;-51
2022/05/26 07:33:33;;;;;;;;;4.75;2.00;;;;;;;;5082745;27;51142;-50
2022/05/26 07:42:55;;;;;;;;;5.00;2.25;;;;;;;;5042393;28;51096;-50
2022/05/26 07:45:41;;;;;;;;;3.25;2.25;;;;;;;;5042045;28;51059;-53
2022/05/26 07:49:00;;;;;;;;;1.00;1.00;;;;;;;;5041621;28;52222;-53
2022/05/26 07:51:44;;;;;;;;;0.00;0.00;;;;;;;;5041824;28;51165;-52
2022/05/26 07:54:32;;;;;;;;;3.00;1.00;;;;;;;;5042045;28;51095;-50
2022/05/26 07:57:27;;;;;;;;;4.50;2.75;;;;;;;;5038713;28;51506;-52
2022/05/26 08:00:27;;;;;;;;;2.00;2.00;;;;;;;;5042034;28;51154;-49
2022/05/26 08:03:12;;;;;;;;;5.00;3.50;;;;;;;;5042022;28;51111;-50
2022/05/26 08:05:59;;;;;;;;;8.50;5.00;;;;;;;;5041485;28;51184;-50
2022/05/26 08:08:49;;;;;;;;;3.00;2.00;;;;;;;;4979957;28;51159;-51
2022/05/26 08:11:35;;;;;;;;;4.25;2.50;;;;;;;;4979615;28;51124;-53
2022/05/26 08:14:19;;;;;;;;;3.00;1.00;;;;;;;;4980359;28;51183;-50
2022/05/26 08:17:06;;;;;;;;;8.00;3.50;;;;;;;;4962994;28;51603;-52
2022/05/26 08:19:58;;;;;;;;;3.75;1.25;;;;;;;;4959495;28;51140;-53
2022/05/26 08:22:45;;;;;;;;;4.25;1.75;;;;;;;;4977642;28;51086;-51
2022/05/26 08:25:32;;;;;;;;;2.25;1.75;;;;;;;;4977416;28;51178;-50
2022/05/26 08:28:16;;;;;;;;;4.00;0.75;;;;;;;;4978283;28;51319;-52
2022/05/26 08:31:22;;;;;;;;;3.75;1.50;;;;;;;;4978277;28;51218;-52
2022/05/26 08:34:09;;;;;;;;;5.00;3.00;;;;;;;;4982248;28;51216;-51
2022/05/26 08:37:03;;;;;;;;;2.00;2.00;;;;;;;;4996510;28;51313;-51
2022/05/26 08:39:50;;;;;;;;;8.25;5.75;;;;;;;;4988382;28;52024;-51
2022/05/26 08:42:37;;;;;;;;;16.75;14.50;;;;;;;;4998394;28;51197;-52
2022/05/26 08:45:21;;;;;;;;;3.00;1.75;;;;;;;;5014799;28;51275;-51
2022/05/26 08:48:08;;;;;;;;;9.00;7.00;;;;;;;;5055921;28;51174;-50
2022/05/26 08:50:54;;;;;;;;;12.50;8.75;;;;;;;;5055302;28;51111;-49
2022/05/26 08:53:40;;;;;;;;;4.75;4.75;;;;;;;;5051939;28;51408;-52
2022/05/26 08:56:28;;;;;;;;;11.00;8.25;;;;;;;;5055895;28;51111;-49
2022/05/26 08:59:18;;;;;;;;;11.00;11.00;;;;;;;;5061062;28;51185;-51
2022/05/26 09:02:03;;;;;;;;;8.00;6.75;;;;;;;;5056568;28;51582;-51
2022/05/26 09:04:49;;;;;;;;;3.75;2.50;;;;;;;;5060095;28;51263;-51
2022/05/26 09:13:51;;;;;;;;;5.25;4.00;;;;;;;;5058298;28;51322;-52
2022/05/26 09:16:43;;;;;;;;;6.75;3.50;;;;;;;;5060333;28;51038;-49
2022/05/26 09:19:32;;;;;;;;;4.00;1.50;;;;;;;;5059880;28;51366;-49
2022/05/26 09:22:32;;;;;;;;;2.50;1.75;;;;;;;;5059096;28;51121;-52
2022/05/26 09:25:35;;;;;;;;;7.75;5.75;;;;;;;;5057831;28;51221;-52
2022/05/26 09:28:40;;;;;;;;;3.75;1.50;;;;;;;;5049694;28;51275;-52
2022/05/26 09:31:25;;;;;;;;;4.50;1.00;;;;;;;;5051136;28;51160;-53
2022/05/26 09:34:46;;;;;;;;;7.00;2.00;;;;;;;;5054738;27;51099;-53
2022/05/26 09:37:41;;;;;;;;;2.50;1.00;;;;;;;;5075092;27;51339;-50
2022/05/26 09:40:32;;;;;;;;;2.25;0.50;;;;;;;;5077359;27;51578;-52
2022/05/26 09:43:29;;;;;;;;;3.50;1.00;;;;;;;;5080481;27;51180;-50
2022/05/26 09:46:30;;;;;;;;;1.00;1.00;;;;;;;;5072845;27;51505;-51
2022/05/26 09:49:17;;;;;;;;;3.00;1.00;;;;;;;;5070763;27;51253;-50
2022/05/26 09:52:11;;;;;;;;;3.50;1.00;;;;;;;;5072432;27;51193;-50
2022/05/26 09:55:10;;;;;;;;;2.00;0.00;;;;;;;;5074176;27;51349;-52
2022/05/26 09:58:27;;;;;;;;;2.00;1.00;;;;;;;;5079933;27;51096;-50
2022/05/26 10:01:27;;;;;;;;;2.00;0.00;;;;;;;;5079013;27;51037;-53
2022/05/26 10:04:25;;;;;;;;;5.25;1.75;;;;;;;;5073769;27;51260;-53
2022/05/26 10:07:51;;;;;;;;;6.75;2.00;;;;;;;;5069494;27;51168;-51
2022/05/26 10:10:53;;;;;;;;;3.50;1.00;;;;;;;;5074765;27;51178;-52
2022/05/26 10:14:01;;;;;;;;;1.00;1.00;;;;;;;;5073636;27;51450;-54
2022/05/26 10:17:00;;;;;;;;;1.75;1.75;;;;;;;;5071436;27;51347;-52
2022/05/26 10:20:10;;;;;;;;;2.75;1.25;;;;;;;;5076525;27;51037;-50
2022/05/26 10:23:13;;;;;;;;;5.50;1.50;;;;;;;;5076544;27;51441;-53
2022/05/26 10:26:15;;;;;;;;;5.00;2.75;;;;;;;;5077775;28;51067;-54
2022/05/26 10:29:03;;;;;;;;;3.00;2.00;;;;;;;;5074961;28;51184;-50
2022/05/26 10:32:08;;;;;;;;;6.75;3.75;;;;;;;;5078421;28;51195;-52
2022/05/26 10:35:13;;;;;;;;;4.50;3.25;;;;;;;;5076816;28;51138;-53
2022/05/26 10:38:13;;;;;;;;;3.00;2.00;;;;;;;;5077492;28;51082;-51
2022/05/26 10:41:00;;;;;;;;;3.50;2.00;;;;;;;;5076857;28;51137;-51
2022/05/26 10:44:03;;;;;;;;;4.25;2.25;;;;;;;;5069490;28;51313;-53
2022/05/26 10:46:57;;;;;;;;;5.50;2.75;;;;;;;;5059775;28;51051;-52
2022/05/26 10:49:47;;;;;;;;;3.25;0.25;;;;;;;;5078394;28;51182;-51
2022/05/26 10:52:46;;;;;;;;;2.50;1.75;;;;;;;;5072334;28;51348;-50
2022/05/26 10:55:43;;;;;;;;;5.00;3.50;;;;;;;;5059950;28;51361;-53
2022/05/26 10:58:37;;;;;;;;;4.50;1.00;;;;;;;;5070746;28;51213;-51
2022/05/26 11:01:45;;;;;;;;;4.00;1.00;;;;;;;;5059094;28;51359;-50
2022/05/26 11:04:35;;;;;;;;;4.00;1.25;;;;;;;;5077345;28;52054;-51
2022/05/26 11:07:52;;;;;;;;;3.00;1.25;;;;;;;;5075690;28;51484;-53
2022/05/26 11:10:51;;;;;;;;;5.25;2.00;;;;;;;;5072814;28;51111;-52
2022/05/26 11:13:45;;;;;;;;;3.75;1.00;;;;;;;;5076131;28;51314;-51
2022/05/26 11:20:06;;;;;;;;;6.25;2.75;;;;;;;;5062769;28;51104;-51
2022/05/26 11:22:53;;;;;;;;;4.50;2.00;;;;;;;;5073425;28;51125;-53
2022/05/26 11:25:47;;;;;;;;;2.50;2.50;;;;;;;;5077102;28;50998;-52
2022/05/26 11:28:52;;;;;;;;;2.25;2.25;;;;;;;;5071170;28;51386;-49
2022/05/26 11:38:02;;;;;;;;;7.25;4.00;;;;;;;;5080412;27;51100;-51
2022/05/26 11:40:50;;;;;;;;;7.75;4.00;;;;;;;;5075042;27;51186;-50
2022/05/26 11:43:48;;;;;;;;;4.50;3.00;;;;;;;;5080822;27;51499;-52
2022/05/26 11:46:53;;;;;;;;;4.50;2.00;;;;;;;;5079384;27;51621;-50
2022/05/26 11:49:43;;;;;;;;;3.00;1.25;;;;;;;;5080616;27;51281;-53
2022/05/26 11:52:39;;;;;;;;;6.75;0.75;;;;;;;;5076918;27;51152;-50
2022/05/26 11:55:42;;;;;;;;;0.00;0.00;;;;;;;;5082457;27;51378;-50
2022/05/26 11:58:33;;;;;;;;;5.25;2.25;;;;;;;;5082141;27;51121;-50
2022/05/26 12:01:34;;;;;;;;;2.75;2.75;;;;;;;;5081586;27;51213;-50
2022/05/26 12:04:50;;;;;;;;;6.75;1.25;;;;;;;;5081777;27;51035;-50
2022/05/26 12:07:36;;;;;;;;;7.50;2.00;;;;;;;;4999503;28;51159;-49
2022/05/26 12:10:22;;;;;;;;;1.00;0.75;;;;;;;;5030090;27;51162;-51
2022/05/26 12:13:32;;;;;;;;;3.50;1.75;;;;;;;;5075010;27;51144;-51
2022/05/26 12:16:19;;;;;;;;;4.00;1.25;;;;;;;;5078785;27;51013;-50
2022/05/26 12:19:04;;;;;;;;;1.00;0.50;;;;;;;;5077850;27;51036;-50
2022/05/26 12:22:08;;;;;;;;;4.00;2.00;;;;;;;;5076464;27;51422;-49
2022/05/26 12:25:01;;;;;;;;;1.75;1.75;;;;;;;;5081658;27;51204;-50
2022/05/26 12:28:00;;;;;;;;;3.75;3.75;;;;;;;;5082047;27;51370;-50
2022/05/26 12:30:52;;;;;;;;;3.50;2.25;;;;;;;;5078337;27;50991;-53
2022/05/26 12:33:50;;;;;;;;;5.50;2.50;;;;;;;;5024378;28;51165;-52
2022/05/26 12:36:34;;;;;;;;;7.00;3.00;;;;;;;;5033788;28;51177;-52
2022/05/26 12:39:31;;;;;;;;;5.75;3.25;;;;;;;;5022348;28;51488;-50
2022/05/26 12:42:41;;;;;;;;;2.75;1.75;;;;;;;;5011271;28;51027;-53
2022/05/26 12:45:54;;;;;;;;;4.00;1.00;;;;;;;;5034914;28;51156;-50
2022/05/26 12:48:53;;;;;;;;;1.50;0.00;;;;;;;;5029559;28;51526;-52
2022/05/26 12:51:39;;;;;;;;;1.00;0.75;;;;;;;;5034971;28;51186;-50
2022/05/26 12:54:29;;;;;;;;;6.50;3.25;;;;;;;;5026174;28;51054;-50
2022/05/26 12:57:18;;;;;;;;;6.25;2.25;;;;;;;;5023418;28;51180;-52
2022/05/26 13:00:42;;;;;;;;;2.25;0.75;;;;;;;;5019553;28;51212;-50
2022/05/26 13:03:37;;;;;;;;;1.75;1.00;;;;;;;;4927315;28;51165;-53
2022/05/26 13:06:46;;;;;;;;;3.75;2.25;;;;;;;;4937756;28;51118;-53
2022/05/26 13:09:42;;;;;;;;;2.00;0.00;;;;;;;;4956759;28;51158;-49
2022/05/26 13:12:31;;;;;;;;;5.75;2.00;;;;;;;;4977232;28;51334;-49
2022/05/26 13:15:25;;;;;;;;;2.75;2.00;;;;;;;;5059838;27;51096;-50
2022/05/26 13:18:21;;;;;;;;;4.00;3.00;;;;;;;;5077187;27;51170;-53
2022/05/26 13:21:19;;;;;;;;;2.75;0.75;;;;;;;;5056872;27;51433;-49
2022/05/26 13:24:04;;;;;;;;;2.75;1.00;;;;;;;;5077164;27;51205;-51
2022/05/26 13:26:51;;;;;;;;;2.25;2.00;;;;;;;;5076929;27;51150;-53
2022/05/26 13:29:42;;;;;;;;;4.50;2.75;;;;;;;;5078893;27;51099;-52
2022/05/26 13:35:30;;;;;;;;;1.25;1.00;;;;;;;;5077375;27;50973;-48
2022/05/26 13:38:37;;;;;;;;;0.50;0.50;;;;;;;;5077286;27;51067;-49
2022/05/26 13:41:26;;;;;;;;;0.75;0.50;;;;;;;;5077397;27;51167;-50
2022/05/26 13:44:13;;;;;;;;;1.50;1.00;;;;;;;;5077978;27;51422;-50
2022/05/26 13:46:57;;;;;;;;;0.25;0.25;;;;;;;;5080134;27;51298;-50
2022/05/26 13:49:43;;;;;;;;;2.75;1.75;;;;;;;;5077003;27;51397;-51
2022/05/26 13:52:34;;;;;;;;;1.50;1.00;;;;;;;;5079047;27;51139;-52
2022/05/26 13:55:20;;;;;;;;;2.50;1.00;;;;;;;;5078638;27;51176;-52
2022/05/26 13:58:07;;;;;;;;;5.75;1.00;;;;;;;;5078291;27;51417;-50
2022/05/26 14:01:03;;;;;;;;;5.75;0.75;;;;;;;;5072157;27;51431;-53
2022/05/26 14:03:53;;;;;;;;;1.00;1.00;;;;;;;;5073613;27;51221;-50
2022/05/26 14:06:37;;;;;;;;;3.00;1.00;;;;;;;;5058185;27;51195;-51
2022/05/26 14:09:40;;;;;;;;;0.75;0.75;;;;;;;;5078319;27;51011;-51
2022/05/26 14:12:24;;;;;;;;;5.00;1.00;;;;;;;;5076696;27;51441;-52
2022/05/26 14:15:09;;;;;;;;;7.00;1.50;;;;;;;;5075890;27;51080;-48
2022/05/26 14:17:56;;;;;;;;;2.00;1.00;;;;;;;;5079114;27;51148;-49
2022/05/26 14:20:42;;;;;;;;;3.75;1.00;;;;;;;;5077544;27;51452;-51
2022/05/26 14:23:37;;;;;;;;;3.25;2.25;;;;;;;;5077982;27;52011;-49
2022/05/26 14:26:26;;;;;;;;;5.00;3.00;;;;;;;;5075159;27;51210;-52
2022/05/26 14:29:16;;;;;;;;;4.75;2.25;;;;;;;;5078354;28;51119;-51
2022/05/26 14:32:24;;;;;;;;;4.25;3.00;;;;;;;;5076696;28;51576;-51
2022/05/26 14:35:29;;;;;;;;;5.25;2.00;;;;;;;;5077852;28;51043;-47
2022/05/26 14:38:13;;;;;;;;;5.50;3.00;;;;;;;;5076861;28;51085;-48
2022/05/26 14:40:59;;;;;;;;;3.75;1.75;;;;;;;;5077389;28;51274;-50
2022/05/26 14:43:46;;;;;;;;;3.00;1.00;;;;;;;;5076841;28;51362;-51
2022/05/26 14:46:31;;;;;;;;;4.75;2.00;;;;;;;;5076701;28;51221;-52
2022/05/26 14:49:17;;;;;;;;;11.75;4.25;;;;;;;;5076964;28;51056;-51
2022/05/26 14:52:10;;;;;;;;;9.25;3.25;;;;;;;;5077238;28;51821;-53
2022/05/26 14:58:06;;;;;;;;;5.00;2.50;;;;;;;;5073800;28;51135;-50
2022/05/26 15:00:53;;;;;;;;;3.50;2.50;;;;;;;;5075218;28;51297;-52
2022/05/26 15:03:37;;;;;;;;;6.00;2.50;;;;;;;;5077902;28;51450;-48
2022/05/26 15:06:22;;;;;;;;;3.50;3.00;;;;;;;;5076399;27;51112;-48
2022/05/26 15:09:11;;;;;;;;;5.75;2.00;;;;;;;;5081896;27;51139;-49
2022/05/26 15:11:57;;;;;;;;;4.25;2.50;;;;;;;;5081635;27;51235;-51
2022/05/26 15:14:45;;;;;;;;;7.75;4.75;;;;;;;;5081179;27;51174;-50
2022/05/26 15:17:31;;;;;;;;;6.75;4.50;;;;;;;;5082126;27;51008;-52
2022/05/26 15:20:16;;;;;;;;;10.75;7.75;;;;;;;;5078923;27;51241;-52
2022/05/26 15:23:00;;;;;;;;;25.75;18.00;;;;;;;;5060297;27;51362;-53
2022/05/26 15:28:49;;;;;;;;;11.00;10.75;;;;;;;;5083015;27;51116;-49
2022/05/26 15:31:52;;;;;;;;;5.75;5.00;;;;;;;;5039077;28;51178;-50
2022/05/26 15:34:39;;;;;;;;;17.50;15.50;;;;;;;;5039731;28;51238;-50
2022/05/26 15:37:47;;;;;;;;;8.00;5.75;;;;;;;;5039272;28;51418;-53
2022/05/26 15:40:32;;;;;;;;;5.00;3.25;;;;;;;;5036012;28;51025;-51
2022/05/26 15:43:26;;;;;;;;;5.75;4.00;;;;;;;;5036585;28;51077;-51
2022/05/26 15:46:12;;;;;;;;;4.50;2.25;;;;;;;;5037982;28;51125;-48
2022/05/26 15:48:56;;;;;;;;;8.25;3.25;;;;;;;;5038721;28;51657;-47
2022/05/26 15:51:40;;;;;;;;;10.75;3.00;;;;;;;;5036311;28;51239;-50
2022/05/26 15:54:32;;;;;;;;;5.00;3.75;;;;;;;;5040166;28;51560;-53
2022/05/26 15:57:16;;;;;;;;;7.50;5.25;;;;;;;;5038762;28;51161;-54
2022/05/26 16:00:00;;;;;;;;;8.75;5.75;;;;;;;;5038352;28;51097;-53
2022/05/26 16:02:46;;;;;;;;;8.00;4.00;;;;;;;;5039517;28;51169;-53
2022/05/26 16:05:30;;;;;;;;;11.50;3.50;;;;;;;;5046893;28;51454;-52
2022/05/26 16:08:15;;;;;;;;;8.50;4.75;;;;;;;;5056919;28;51084;-54
2022/05/26 16:11:00;;;;;;;;;5.50;4.25;;;;;;;;5059192;28;51264;-53
2022/05/26 16:13:44;;;;;;;;;10.75;4.50;;;;;;;;5056814;28;51211;-53
2022/05/26 16:16:29;;;;;;;;;10.75;5.00;;;;;;;;5061159;28;51106;-54
2022/05/26 16:19:13;;;;;;;;;4.75;4.50;;;;;;;;5058764;28;51250;-54
2022/05/26 16:21:58;;;;;;;;;4.75;3.50;;;;;;;;5058525;28;51202;-54
2022/05/26 16:24:45;;;;;;;;;6.00;4.00;;;;;;;;5061346;28;51162;-51
2022/05/26 16:27:30;;;;;;;;;10.25;5.00;;;;;;;;5060660;28;51070;-54
2022/05/26 16:30:20;;;;;;;;;6.75;5.00;;;;;;;;5059624;28;51192;-52
2022/05/26 16:33:06;;;;;;;;;8.75;5.50;;;;;;;;5061320;28;51072;-53
2022/05/26 16:38:56;;;;;;;;;9.75;6.25;;;;;;;;5064818;27;51205;-52
2022/05/26 16:41:41;;;;;;;;;6.50;4.75;;;;;;;;5080803;27;51159;-50
2022/05/26 16:44:51;;;;;;;;;7.50;4.50;;;;;;;;5080956;27;51096;-57
2022/05/26 16:47:36;;;;;;;;;5.00;3.75;;;;;;;;5079995;27;51082;-53
2022/05/26 16:50:32;;;;;;;;;6.75;5.00;;;;;;;;5080137;27;51132;-56
2022/05/26 16:53:18;;;;;;;;;6.75;3.25;;;;;;;;5078337;27;51129;-54
2022/05/26 16:56:11;;;;;;;;;6.00;3.75;;;;;;;;5080128;27;51363;-54
2022/05/26 16:59:00;;;;;;;;;7.25;5.25;;;;;;;;5061783;27;51138;-51
2022/05/26 17:01:47;;;;;;;;;9.25;4.25;;;;;;;;5078896;27;51079;-51
2022/05/26 17:04:45;;;;;;;;;17.00;12.50;;;;;;;;5076230;27;51727;-52
2022/05/26 17:07:29;;;;;;;;;9.25;5.25;;;;;;;;5079606;27;51075;-52
2022/05/26 17:10:20;;;;;;;;;5.00;3.75;;;;;;;;5075513;27;51153;-53
2022/05/26 17:22:51;;;;;;;;;8.25;6.50;;;;;;;;5079961;27;51056;-52
2022/05/26 17:25:39;;;;;;;;;10.25;5.75;;;;;;;;5080119;27;51054;-53
2022/05/26 17:28:25;;;;;;;;;9.75;7.50;;;;;;;;5076783;27;51120;-52
2022/05/26 17:31:10;;;;;;;;;4.50;4.25;;;;;;;;5079567;27;51371;-53
2022/05/26 17:34:14;;;;;;;;;5.75;4.50;;;;;;;;5079058;27;51107;-54
2022/05/26 17:37:00;;;;;;;;;7.50;5.00;;;;;;;;5079716;27;51512;-54
2022/05/26 17:39:45;;;;;;;;;10.00;8.00;;;;;;;;5076156;27;51166;-53
2022/05/26 17:42:42;;;;;;;;;15.25;6.75;;;;;;;;5077072;27;51217;-54
2022/05/26 17:45:28;;;;;;;;;8.00;4.75;;;;;;;;5077721;27;51212;-53
2022/05/26 17:48:16;;;;;;;;;7.00;6.00;;;;;;;;5077791;27;51505;-52
2022/05/26 17:51:13;;;;;;;;;13.25;8.50;;;;;;;;5072701;27;51173;-51
2022/05/26 17:54:03;;;;;;;;;13.50;8.50;;;;;;;;5079572;27;51094;-51
2022/05/26 17:57:05;;;;;;;;;14.25;11.00;;;;;;;;5078454;27;51507;-52
2022/05/26 18:03:10;;;;;;;;;10.50;8.75;;;;;;;;5078833;27;51490;-53
2022/05/26 18:06:06;;;;;;;;;12.25;9.75;;;;;;;;5077454;27;51135;-50
2022/05/26 18:08:56;;;;;;;;;9.00;6.00;;;;;;;;5079218;27;51095;-54
2022/05/26 18:11:42;;;;;;;;;11.75;7.25;;;;;;;;5063717;27;51230;-51
2022/05/26 18:14:34;;;;;;;;;7.50;5.00;;;;;;;;5071267;27;51465;-53
2022/05/26 18:17:24;;;;;;;;;6.75;2.75;;;;;;;;5077988;27;51102;-51